sensor_id;sensor_type;location;lat;lon;timestamp;temperature;humidity
296;DHT22;132;48.770;9.200;2023-09-08T00:02:37;18.60;1.00
296;DHT22;132;48.770;9.200;2023-09-08T00:05:24;18.60;1.00
296;DHT22;132;48.770;9.200;2023-09-08T00:08:10;18.50;1.00
296;DHT22;132;48.770;9.200;2023-09-08T00:10:57;18.50;1.00
296;DHT22;132;48.770;9.200;2023-09-08T00:13:43;18.50;1.00
296;DHT22;132;48.770;9.200;2023-09-08T00:16:30;18.40;1.00
296;DHT22;132;48.770;9.200;2023-09-08T00:19:16;18.40;1.00
296;DHT22;132;48.770;9.200;2023-09-08T00:22:04;18.40;1.00
296;DHT22;132;48.770;9.200;2023-09-08T00:24:52;18.40;1.00
296;DHT22;132;48.770;9.200;2023-09-08T00:27:38;18.40;1.00
296;DHT22;132;48.770;9.200;2023-09-08T00:30:25;18.30;1.00
296;DHT22;132;48.770;9.200;2023-09-08T00:33:12;18.30;1.00
296;DHT22;132;48.770;9.200;2023-09-08T00:36:00;18.30;1.00
296;DHT22;132;48.770;9.200;2023-09-08T00:38:47;18.40;1.00
296;DHT22;132;48.770;9.200;2023-09-08T00:41:33;18.20;1.00
296;DHT22;132;48.770;9.200;2023-09-08T00:44:20;18.20;1.00
296;DHT22;132;48.770;9.200;2023-09-08T00:47:07;18.20;1.00
296;DHT22;132;48.770;9.200;2023-09-08T00:49:53;18.40;1.00
296;DHT22;132;48.770;9.200;2023-09-08T00:52:40;18.10;1.00
296;DHT22;132;48.770;9.200;2023-09-08T00:55:27;18.40;1.00
296;DHT22;132;48.770;9.200;2023-09-08T00:58:14;18.20;1.00
296;DHT22;132;48.770;9.200;2023-09-08T01:01:01;18.10;1.00
296;DHT22;132;48.770;9.200;2023-09-08T01:03:47;18.00;1.00
296;DHT22;132;48.770;9.200;2023-09-08T01:06:34;18.00;1.00
296;DHT22;132;48.770;9.200;2023-09-08T01:09:22;18.00;1.00
296;DHT22;132;48.770;9.200;2023-09-08T01:12:09;18.00;1.00
296;DHT22;132;48.770;9.200;2023-09-08T01:14:56;17.90;1.00
296;DHT22;132;48.770;9.200;2023-09-08T01:17:42;17.90;1.00
296;DHT22;132;48.770;9.200;2023-09-08T01:26:53;17.80;1.00
296;DHT22;132;48.770;9.200;2023-09-08T01:29:41;17.70;1.00
296;DHT22;132;48.770;9.200;2023-09-08T01:32:29;17.70;1.00
296;DHT22;132;48.770;9.200;2023-09-08T01:35:16;17.80;1.00
296;DHT22;132;48.770;9.200;2023-09-08T01:38:03;17.70;1.00
296;DHT22;132;48.770;9.200;2023-09-08T01:40:51;17.50;1.00
296;DHT22;132;48.770;9.200;2023-09-08T01:43:38;17.60;1.00
296;DHT22;132;48.770;9.200;2023-09-08T01:46:24;17.60;1.00
296;DHT22;132;48.770;9.200;2023-09-08T01:49:11;17.60;1.00
296;DHT22;132;48.770;9.200;2023-09-08T01:51:58;17.60;1.00
296;DHT22;132;48.770;9.200;2023-09-08T01:54:44;17.50;1.00
296;DHT22;132;48.770;9.200;2023-09-08T01:57:31;17.50;1.00
296;DHT22;132;48.770;9.200;2023-09-08T02:00:17;17.40;1.00
296;DHT22;132;48.770;9.200;2023-09-08T02:05:51;17.30;1.00
296;DHT22;132;48.770;9.200;2023-09-08T02:08:38;17.30;1.00
296;DHT22;132;48.770;9.200;2023-09-08T02:11:27;17.20;1.00
296;DHT22;132;48.770;9.200;2023-09-08T02:14:13;17.30;1.00
296;DHT22;132;48.770;9.200;2023-09-08T02:17:00;17.50;1.00
296;DHT22;132;48.770;9.200;2023-09-08T02:19:46;17.20;1.00
296;DHT22;132;48.770;9.200;2023-09-08T02:22:33;17.20;1.00
296;DHT22;132;48.770;9.200;2023-09-08T02:25:23;17.20;1.00
296;DHT22;132;48.770;9.200;2023-09-08T02:28:09;17.10;1.00
296;DHT22;132;48.770;9.200;2023-09-08T02:30:56;17.10;1.00
296;DHT22;132;48.770;9.200;2023-09-08T02:33:43;17.10;1.00
296;DHT22;132;48.770;9.200;2023-09-08T02:36:30;17.10;1.00
296;DHT22;132;48.770;9.200;2023-09-08T02:39:17;17.10;1.00
296;DHT22;132;48.770;9.200;2023-09-08T02:42:04;17.10;1.00
296;DHT22;132;48.770;9.200;2023-09-08T02:44:51;17.10;1.00
296;DHT22;132;48.770;9.200;2023-09-08T02:47:38;17.10;1.00
296;DHT22;132;48.770;9.200;2023-09-08T02:50:25;17.30;1.00
296;DHT22;132;48.770;9.200;2023-09-08T02:53:12;17.10;1.00
296;DHT22;132;48.770;9.200;2023-09-08T02:55:59;17.10;1.00
296;DHT22;132;48.770;9.200;2023-09-08T02:58:46;17.20;1.00
296;DHT22;132;48.770;9.200;2023-09-08T03:01:32;17.00;1.00
296;DHT22;132;48.770;9.200;2023-09-08T03:07:06;17.00;1.00
296;DHT22;132;48.770;9.200;2023-09-08T03:09:53;16.90;1.00
296;DHT22;132;48.770;9.200;2023-09-08T03:12:41;16.90;1.00
296;DHT22;132;48.770;9.200;2023-09-08T03:15:28;14.40;1.00
296;DHT22;132;48.770;9.200;2023-09-08T03:18:15;16.90;1.00
296;DHT22;132;48.770;9.200;2023-09-08T03:21:05;16.90;1.00
296;DHT22;132;48.770;9.200;2023-09-08T03:23:58;16.90;1.00
296;DHT22;132;48.770;9.200;2023-09-08T03:26:45;16.80;1.00
296;DHT22;132;48.770;9.200;2023-09-08T03:29:31;16.90;1.00
296;DHT22;132;48.770;9.200;2023-09-08T03:32:19;16.80;1.00
296;DHT22;132;48.770;9.200;2023-09-08T03:35:06;16.80;1.00
296;DHT22;132;48.770;9.200;2023-09-08T03:37:54;16.70;1.00
296;DHT22;132;48.770;9.200;2023-09-08T03:40:40;16.80;1.00
296;DHT22;132;48.770;9.200;2023-09-08T03:43:27;16.70;1.00
296;DHT22;132;48.770;9.200;2023-09-08T03:46:15;16.70;1.00
296;DHT22;132;48.770;9.200;2023-09-08T03:49:01;16.70;1.00
296;DHT22;132;48.770;9.200;2023-09-08T03:51:48;16.70;1.00
296;DHT22;132;48.770;9.200;2023-09-08T04:03:01;16.50;1.00
296;DHT22;132;48.770;9.200;2023-09-08T04:05:49;16.50;1.00
296;DHT22;132;48.770;9.200;2023-09-08T04:11:23;16.60;1.00
296;DHT22;132;48.770;9.200;2023-09-08T04:14:09;16.90;1.00
296;DHT22;132;48.770;9.200;2023-09-08T04:16:56;16.70;1.00
296;DHT22;132;48.770;9.200;2023-09-08T04:19:43;16.70;1.00
296;DHT22;132;48.770;9.200;2023-09-08T04:22:29;16.80;1.00
296;DHT22;132;48.770;9.200;2023-09-08T04:25:16;16.80;1.00
296;DHT22;132;48.770;9.200;2023-09-08T04:28:03;16.90;1.00
296;DHT22;132;48.770;9.200;2023-09-08T04:33:39;16.90;1.00
296;DHT22;132;48.770;9.200;2023-09-08T04:36:25;16.90;1.00
296;DHT22;132;48.770;9.200;2023-09-08T04:39:12;16.90;1.00
296;DHT22;132;48.770;9.200;2023-09-08T04:42:01;16.90;1.00
296;DHT22;132;48.770;9.200;2023-09-08T04:44:49;16.80;1.00
296;DHT22;132;48.770;9.200;2023-09-08T04:47:36;16.80;1.00
296;DHT22;132;48.770;9.200;2023-09-08T04:50:24;16.40;1.00
296;DHT22;132;48.770;9.200;2023-09-08T04:53:11;16.80;1.00
296;DHT22;132;48.770;9.200;2023-09-08T04:55:58;16.80;1.00
296;DHT22;132;48.770;9.200;2023-09-08T04:58:44;16.90;1.00
296;DHT22;132;48.770;9.200;2023-09-08T05:01:32;16.80;1.00
296;DHT22;132;48.770;9.200;2023-09-08T05:04:21;16.70;1.00
296;DHT22;132;48.770;9.200;2023-09-08T05:07:08;16.70;1.00
296;DHT22;132;48.770;9.200;2023-09-08T05:09:55;16.60;1.00
296;DHT22;132;48.770;9.200;2023-09-08T05:12:41;16.60;1.00
296;DHT22;132;48.770;9.200;2023-09-08T05:15:28;16.60;1.00
296;DHT22;132;48.770;9.200;2023-09-08T05:18:17;16.50;1.00
296;DHT22;132;48.770;9.200;2023-09-08T05:21:03;16.50;1.00
296;DHT22;132;48.770;9.200;2023-09-08T05:23:51;16.60;1.00
296;DHT22;132;48.770;9.200;2023-09-08T05:26:37;16.70;1.00
296;DHT22;132;48.770;9.200;2023-09-08T05:29:25;16.70;1.00
296;DHT22;132;48.770;9.200;2023-09-08T05:32:12;17.10;1.00
296;DHT22;132;48.770;9.200;2023-09-08T05:34:59;16.80;1.00
296;DHT22;132;48.770;9.200;2023-09-08T05:37:46;16.90;1.00
296;DHT22;132;48.770;9.200;2023-09-08T05:40:34;17.00;1.00
296;DHT22;132;48.770;9.200;2023-09-08T05:43:22;17.00;1.00
296;DHT22;132;48.770;9.200;2023-09-08T05:51:43;17.10;1.00
296;DHT22;132;48.770;9.200;2023-09-08T05:54:30;17.10;1.00
296;DHT22;132;48.770;9.200;2023-09-08T05:57:17;17.20;1.00
296;DHT22;132;48.770;9.200;2023-09-08T06:00:05;17.20;1.00
296;DHT22;132;48.770;9.200;2023-09-08T06:02:59;17.20;1.00
296;DHT22;132;48.770;9.200;2023-09-08T06:05:46;17.30;1.00
296;DHT22;132;48.770;9.200;2023-09-08T06:08:33;17.40;1.00
296;DHT22;132;48.770;9.200;2023-09-08T06:11:19;17.40;1.00
296;DHT22;132;48.770;9.200;2023-09-08T06:14:06;17.50;1.00
296;DHT22;132;48.770;9.200;2023-09-08T06:16:57;17.60;1.00
296;DHT22;132;48.770;9.200;2023-09-08T06:19:44;17.60;1.00
296;DHT22;132;48.770;9.200;2023-09-08T06:22:32;17.70;1.00
296;DHT22;132;48.770;9.200;2023-09-08T06:25:19;17.80;1.00
296;DHT22;132;48.770;9.200;2023-09-08T06:28:06;17.90;1.00
296;DHT22;132;48.770;9.200;2023-09-08T06:30:54;18.00;1.00
296;DHT22;132;48.770;9.200;2023-09-08T06:33:41;18.10;1.00
296;DHT22;132;48.770;9.200;2023-09-08T06:36:28;18.20;1.00
296;DHT22;132;48.770;9.200;2023-09-08T06:39:14;18.40;1.00
296;DHT22;132;48.770;9.200;2023-09-08T06:42:02;18.50;1.00
296;DHT22;132;48.770;9.200;2023-09-08T06:44:48;18.70;1.00
296;DHT22;132;48.770;9.200;2023-09-08T06:47:35;18.80;1.00
296;DHT22;132;48.770;9.200;2023-09-08T06:53:09;19.10;1.00
296;DHT22;132;48.770;9.200;2023-09-08T06:55:57;19.80;1.00
296;DHT22;132;48.770;9.200;2023-09-08T06:58:44;19.80;1.00
296;DHT22;132;48.770;9.200;2023-09-08T07:07:16;22.10;1.00
296;DHT22;132;48.770;9.200;2023-09-08T07:10:05;22.70;1.00
296;DHT22;132;48.770;9.200;2023-09-08T07:12:52;23.40;1.00
296;DHT22;132;48.770;9.200;2023-09-08T07:15:39;24.10;1.00
296;DHT22;132;48.770;9.200;2023-09-08T07:18:25;24.80;1.00
296;DHT22;132;48.770;9.200;2023-09-08T07:21:12;25.50;1.00
296;DHT22;132;48.770;9.200;2023-09-08T07:24:00;26.00;1.00
296;DHT22;132;48.770;9.200;2023-09-08T07:26:47;26.50;1.00
296;DHT22;132;48.770;9.200;2023-09-08T07:29:34;26.90;1.00
296;DHT22;132;48.770;9.200;2023-09-08T07:32:21;27.20;1.00
296;DHT22;132;48.770;9.200;2023-09-08T07:35:10;27.40;1.00
296;DHT22;132;48.770;9.200;2023-09-08T07:38:01;27.80;1.00
296;DHT22;132;48.770;9.200;2023-09-08T07:40:48;28.20;1.00
296;DHT22;132;48.770;9.200;2023-09-08T07:43:34;28.70;1.00
296;DHT22;132;48.770;9.200;2023-09-08T07:46:27;28.90;1.00
296;DHT22;132;48.770;9.200;2023-09-08T07:49:13;29.20;1.00
296;DHT22;132;48.770;9.200;2023-09-08T07:52:01;29.20;1.00
296;DHT22;132;48.770;9.200;2023-09-08T07:54:48;29.50;1.00
296;DHT22;132;48.770;9.200;2023-09-08T07:57:34;29.70;1.00
296;DHT22;132;48.770;9.200;2023-09-08T08:00:21;29.90;1.00
296;DHT22;132;48.770;9.200;2023-09-08T08:03:08;30.10;1.00
296;DHT22;132;48.770;9.200;2023-09-08T08:05:56;30.20;1.00
296;DHT22;132;48.770;9.200;2023-09-08T08:08:44;30.40;1.00
296;DHT22;132;48.770;9.200;2023-09-08T08:11:31;30.60;1.00
296;DHT22;132;48.770;9.200;2023-09-08T08:14:17;30.60;1.00
296;DHT22;132;48.770;9.200;2023-09-08T08:17:04;30.70;1.00
296;DHT22;132;48.770;9.200;2023-09-08T08:19:51;30.90;1.00
296;DHT22;132;48.770;9.200;2023-09-08T08:22:38;31.20;1.00
296;DHT22;132;48.770;9.200;2023-09-08T08:25:25;31.40;1.00
296;DHT22;132;48.770;9.200;2023-09-08T08:28:12;31.60;1.00
296;DHT22;132;48.770;9.200;2023-09-08T08:30:58;31.60;1.00
296;DHT22;132;48.770;9.200;2023-09-08T08:33:45;31.70;1.00
296;DHT22;132;48.770;9.200;2023-09-08T08:36:32;31.70;1.00
296;DHT22;132;48.770;9.200;2023-09-08T08:39:18;31.80;1.00
296;DHT22;132;48.770;9.200;2023-09-08T08:42:09;32.00;1.00
296;DHT22;132;48.770;9.200;2023-09-08T08:44:57;32.30;1.00
296;DHT22;132;48.770;9.200;2023-09-08T08:47:44;32.60;1.00
296;DHT22;132;48.770;9.200;2023-09-08T08:50:32;32.80;1.00
296;DHT22;132;48.770;9.200;2023-09-08T08:53:20;32.90;1.00
296;DHT22;132;48.770;9.200;2023-09-08T08:56:07;33.10;1.00
296;DHT22;132;48.770;9.200;2023-09-08T08:58:57;33.00;1.00
296;DHT22;132;48.770;9.200;2023-09-08T09:01:44;33.10;1.00
296;DHT22;132;48.770;9.200;2023-09-08T09:04:31;33.20;1.00
296;DHT22;132;48.770;9.200;2023-09-08T09:07:19;33.30;1.00
296;DHT22;132;48.770;9.200;2023-09-08T09:10:07;33.50;1.00
296;DHT22;132;48.770;9.200;2023-09-08T09:12:54;33.90;1.00
296;DHT22;132;48.770;9.200;2023-09-08T09:15:41;34.10;1.00
296;DHT22;132;48.770;9.200;2023-09-08T09:18:32;34.30;1.00
296;DHT22;132;48.770;9.200;2023-09-08T09:21:19;34.40;1.00
296;DHT22;132;48.770;9.200;2023-09-08T09:26:53;35.00;1.00
296;DHT22;132;48.770;9.200;2023-09-08T09:29:48;35.20;1.00
296;DHT22;132;48.770;9.200;2023-09-08T09:32:35;35.20;1.00
296;DHT22;132;48.770;9.200;2023-09-08T09:35:42;35.30;1.00
296;DHT22;132;48.770;9.200;2023-09-08T09:38:29;35.60;1.00
296;DHT22;132;48.770;9.200;2023-09-08T09:41:16;35.70;1.00
296;DHT22;132;48.770;9.200;2023-09-08T09:44:03;35.80;1.00
296;DHT22;132;48.770;9.200;2023-09-08T09:46:53;36.00;1.00
296;DHT22;132;48.770;9.200;2023-09-08T09:49:44;36.20;1.00
296;DHT22;132;48.770;9.200;2023-09-08T09:52:31;36.40;1.00
296;DHT22;132;48.770;9.200;2023-09-08T09:55:18;36.70;1.00
296;DHT22;132;48.770;9.200;2023-09-08T09:58:06;36.80;1.00
296;DHT22;132;48.770;9.200;2023-09-08T10:00:53;36.90;1.00
296;DHT22;132;48.770;9.200;2023-09-08T10:03:41;37.10;1.00
296;DHT22;132;48.770;9.200;2023-09-08T10:06:28;37.30;1.00
296;DHT22;132;48.770;9.200;2023-09-08T10:09:15;37.60;1.00
296;DHT22;132;48.770;9.200;2023-09-08T10:12:06;37.80;1.00
296;DHT22;132;48.770;9.200;2023-09-08T10:14:55;37.90;1.00
296;DHT22;132;48.770;9.200;2023-09-08T10:17:44;38.00;1.00
296;DHT22;132;48.770;9.200;2023-09-08T10:20:33;38.20;1.00
296;DHT22;132;48.770;9.200;2023-09-08T10:23:57;38.20;1.00
296;DHT22;132;48.770;9.200;2023-09-08T10:27:12;38.50;1.00
296;DHT22;132;48.770;9.200;2023-09-08T10:30:00;38.60;1.00
296;DHT22;132;48.770;9.200;2023-09-08T10:32:48;38.60;1.00
296;DHT22;132;48.770;9.200;2023-09-08T10:35:37;38.70;1.00
296;DHT22;132;48.770;9.200;2023-09-08T10:38:32;38.80;1.00
296;DHT22;132;48.770;9.200;2023-09-08T10:44:14;39.10;1.00
296;DHT22;132;48.770;9.200;2023-09-08T10:47:02;39.30;1.00
296;DHT22;132;48.770;9.200;2023-09-08T10:49:50;39.50;1.00
296;DHT22;132;48.770;9.200;2023-09-08T10:52:41;39.70;1.00
296;DHT22;132;48.770;9.200;2023-09-08T10:55:36;39.90;1.00
296;DHT22;132;48.770;9.200;2023-09-08T10:58:36;40.00;1.00
296;DHT22;132;48.770;9.200;2023-09-08T11:01:25;39.90;1.00
296;DHT22;132;48.770;9.200;2023-09-08T11:04:15;40.10;1.00
296;DHT22;132;48.770;9.200;2023-09-08T11:07:05;40.20;1.00
296;DHT22;132;48.770;9.200;2023-09-08T11:09:52;40.30;1.00
296;DHT22;132;48.770;9.200;2023-09-08T11:12:38;40.30;1.00
296;DHT22;132;48.770;9.200;2023-09-08T11:15:25;40.20;1.00
296;DHT22;132;48.770;9.200;2023-09-08T11:18:12;40.20;1.00
296;DHT22;132;48.770;9.200;2023-09-08T11:21:00;40.30;1.00
296;DHT22;132;48.770;9.200;2023-09-08T11:23:48;40.40;1.00
296;DHT22;132;48.770;9.200;2023-09-08T11:26:35;40.60;1.00
296;DHT22;132;48.770;9.200;2023-09-08T11:29:22;40.60;1.00
296;DHT22;132;48.770;9.200;2023-09-08T11:32:10;40.70;1.00
296;DHT22;132;48.770;9.200;2023-09-08T11:35:03;40.80;1.00
296;DHT22;132;48.770;9.200;2023-09-08T11:37:50;40.60;1.00
296;DHT22;132;48.770;9.200;2023-09-08T11:40:38;40.50;1.00
296;DHT22;132;48.770;9.200;2023-09-08T11:43:26;40.50;1.00
296;DHT22;132;48.770;9.200;2023-09-08T11:46:13;40.60;1.00
296;DHT22;132;48.770;9.200;2023-09-08T11:49:04;40.70;1.00
296;DHT22;132;48.770;9.200;2023-09-08T11:51:50;40.70;1.00
296;DHT22;132;48.770;9.200;2023-09-08T11:54:37;40.50;1.00
296;DHT22;132;48.770;9.200;2023-09-08T11:57:28;40.50;1.00
296;DHT22;132;48.770;9.200;2023-09-08T12:00:16;40.50;1.00
296;DHT22;132;48.770;9.200;2023-09-08T12:03:12;40.30;1.00
296;DHT22;132;48.770;9.200;2023-09-08T12:05:59;39.90;1.00
296;DHT22;132;48.770;9.200;2023-09-08T12:08:46;39.30;1.00
296;DHT22;132;48.770;9.200;2023-09-08T12:11:36;38.70;1.00
296;DHT22;132;48.770;9.200;2023-09-08T12:14:27;38.40;1.00
296;DHT22;132;48.770;9.200;2023-09-08T12:17:14;37.70;1.00
296;DHT22;132;48.770;9.200;2023-09-08T12:20:14;37.00;1.00
296;DHT22;132;48.770;9.200;2023-09-08T12:23:03;36.40;1.00
296;DHT22;132;48.770;9.200;2023-09-08T12:25:51;35.70;1.00
296;DHT22;132;48.770;9.200;2023-09-08T12:28:38;35.00;1.00
296;DHT22;132;48.770;9.200;2023-09-08T12:31:25;34.50;1.00
296;DHT22;132;48.770;9.200;2023-09-08T12:34:11;34.00;1.00
296;DHT22;132;48.770;9.200;2023-09-08T12:36:59;33.60;1.00
296;DHT22;132;48.770;9.200;2023-09-08T12:39:46;33.40;1.00
296;DHT22;132;48.770;9.200;2023-09-08T12:42:32;33.10;1.00
296;DHT22;132;48.770;9.200;2023-09-08T12:45:21;32.90;1.00
296;DHT22;132;48.770;9.200;2023-09-08T12:48:09;32.70;1.00
296;DHT22;132;48.770;9.200;2023-09-08T12:50:55;32.40;1.00
296;DHT22;132;48.770;9.200;2023-09-08T12:53:42;32.10;1.00
296;DHT22;132;48.770;9.200;2023-09-08T12:56:29;31.90;1.00
296;DHT22;132;48.770;9.200;2023-09-08T12:59:15;31.60;1.00
296;DHT22;132;48.770;9.200;2023-09-08T13:02:02;31.50;1.00
296;DHT22;132;48.770;9.200;2023-09-08T13:04:48;31.30;1.00
296;DHT22;132;48.770;9.200;2023-09-08T13:07:35;31.20;1.00
296;DHT22;132;48.770;9.200;2023-09-08T13:10:22;31.10;1.00
296;DHT22;132;48.770;9.200;2023-09-08T13:13:08;30.90;1.00
296;DHT22;132;48.770;9.200;2023-09-08T13:15:56;30.70;1.00
296;DHT22;132;48.770;9.200;2023-09-08T13:18:42;30.60;1.00
296;DHT22;132;48.770;9.200;2023-09-08T13:21:31;30.70;1.00
296;DHT22;132;48.770;9.200;2023-09-08T13:24:18;30.70;1.00
296;DHT22;132;48.770;9.200;2023-09-08T13:27:06;30.70;1.00
296;DHT22;132;48.770;9.200;2023-09-08T13:29:54;30.70;1.00
296;DHT22;132;48.770;9.200;2023-09-08T13:32:41;30.60;1.00
296;DHT22;132;48.770;9.200;2023-09-08T13:35:28;30.70;1.00
296;DHT22;132;48.770;9.200;2023-09-08T13:38:15;30.60;1.00
296;DHT22;132;48.770;9.200;2023-09-08T13:41:02;30.60;1.00
296;DHT22;132;48.770;9.200;2023-09-08T13:43:48;30.60;1.00
296;DHT22;132;48.770;9.200;2023-09-08T13:46:35;30.60;1.00
296;DHT22;132;48.770;9.200;2023-09-08T13:49:22;30.60;1.00
296;DHT22;132;48.770;9.200;2023-09-08T13:52:09;30.60;1.00
296;DHT22;132;48.770;9.200;2023-09-08T13:54:55;30.70;1.00
296;DHT22;132;48.770;9.200;2023-09-08T13:57:42;30.60;1.00
296;DHT22;132;48.770;9.200;2023-09-08T14:00:29;30.60;1.00
296;DHT22;132;48.770;9.200;2023-09-08T14:03:17;30.70;1.00
296;DHT22;132;48.770;9.200;2023-09-08T14:06:04;30.60;1.00
296;DHT22;132;48.770;9.200;2023-09-08T14:08:51;30.60;1.00
296;DHT22;132;48.770;9.200;2023-09-08T14:11:37;30.70;1.00
296;DHT22;132;48.770;9.200;2023-09-08T14:14:24;30.70;1.00
296;DHT22;132;48.770;9.200;2023-09-08T14:17:11;30.70;1.00
296;DHT22;132;48.770;9.200;2023-09-08T14:19:57;30.60;1.00
296;DHT22;132;48.770;9.200;2023-09-08T14:22:44;30.30;1.00
296;DHT22;132;48.770;9.200;2023-09-08T14:25:30;30.60;1.00
296;DHT22;132;48.770;9.200;2023-09-08T14:28:17;30.60;1.00
296;DHT22;132;48.770;9.200;2023-09-08T14:31:04;30.50;1.00
296;DHT22;132;48.770;9.200;2023-09-08T14:33:50;30.50;1.00
296;DHT22;132;48.770;9.200;2023-09-08T14:36:37;30.50;1.00
296;DHT22;132;48.770;9.200;2023-09-08T14:39:24;30.30;1.00
296;DHT22;132;48.770;9.200;2023-09-08T14:42:10;30.10;1.00
296;DHT22;132;48.770;9.200;2023-09-08T14:44:57;30.00;1.00
296;DHT22;132;48.770;9.200;2023-09-08T14:47:44;30.00;1.00
296;DHT22;132;48.770;9.200;2023-09-08T14:50:31;29.90;1.00
296;DHT22;132;48.770;9.200;2023-09-08T14:53:18;29.80;1.00
296;DHT22;132;48.770;9.200;2023-09-08T14:56:04;29.80;1.00
296;DHT22;132;48.770;9.200;2023-09-08T14:58:51;29.60;1.00
296;DHT22;132;48.770;9.200;2023-09-08T15:01:38;29.50;1.00
296;DHT22;132;48.770;9.200;2023-09-08T15:04:27;29.40;1.00
296;DHT22;132;48.770;9.200;2023-09-08T15:07:13;29.30;1.00
296;DHT22;132;48.770;9.200;2023-09-08T15:10:00;29.30;1.00
296;DHT22;132;48.770;9.200;2023-09-08T15:12:47;29.10;1.00
296;DHT22;132;48.770;9.200;2023-09-08T15:15:34;29.10;1.00
296;DHT22;132;48.770;9.200;2023-09-08T15:18:21;29.00;1.00
296;DHT22;132;48.770;9.200;2023-09-08T15:21:10;28.90;1.00
296;DHT22;132;48.770;9.200;2023-09-08T15:23:56;28.90;1.00
296;DHT22;132;48.770;9.200;2023-09-08T15:26:43;28.80;1.00
296;DHT22;132;48.770;9.200;2023-09-08T15:29:31;28.70;1.00
296;DHT22;132;48.770;9.200;2023-09-08T15:32:18;28.70;1.00
296;DHT22;132;48.770;9.200;2023-09-08T15:35:06;28.70;1.00
296;DHT22;132;48.770;9.200;2023-09-08T15:37:52;28.60;1.00
296;DHT22;132;48.770;9.200;2023-09-08T15:43:48;28.50;1.00
296;DHT22;132;48.770;9.200;2023-09-08T15:46:34;28.50;1.00
296;DHT22;132;48.770;9.200;2023-09-08T15:49:21;28.50;1.00
296;DHT22;132;48.770;9.200;2023-09-08T15:52:08;28.40;1.00
296;DHT22;132;48.770;9.200;2023-09-08T15:54:54;28.40;1.00
296;DHT22;132;48.770;9.200;2023-09-08T15:57:41;28.40;1.00
296;DHT22;132;48.770;9.200;2023-09-08T16:00:27;28.30;1.00
296;DHT22;132;48.770;9.200;2023-09-08T16:03:14;28.30;1.00
296;DHT22;132;48.770;9.200;2023-09-08T16:06:01;28.30;1.00
296;DHT22;132;48.770;9.200;2023-09-08T16:08:47;28.30;1.00
296;DHT22;132;48.770;9.200;2023-09-08T16:11:34;28.20;1.00
296;DHT22;132;48.770;9.200;2023-09-08T16:14:20;28.20;1.00
296;DHT22;132;48.770;9.200;2023-09-08T16:17:07;28.10;1.00
296;DHT22;132;48.770;9.200;2023-09-08T16:19:54;28.00;1.00
296;DHT22;132;48.770;9.200;2023-09-08T16:22:40;27.90;1.00
296;DHT22;132;48.770;9.200;2023-09-08T16:25:27;27.90;1.00
296;DHT22;132;48.770;9.200;2023-09-08T16:28:14;27.90;1.00
296;DHT22;132;48.770;9.200;2023-09-08T16:31:05;27.80;1.00
296;DHT22;132;48.770;9.200;2023-09-08T16:33:52;27.80;1.00
296;DHT22;132;48.770;9.200;2023-09-08T16:36:38;27.80;1.00
296;DHT22;132;48.770;9.200;2023-09-08T16:39:25;27.70;1.00
296;DHT22;132;48.770;9.200;2023-09-08T16:42:12;27.70;1.00
296;DHT22;132;48.770;9.200;2023-09-08T16:44:58;27.70;1.00
296;DHT22;132;48.770;9.200;2023-09-08T16:47:45;27.60;1.00
296;DHT22;132;48.770;9.200;2023-09-08T16:50:31;27.50;1.00
296;DHT22;132;48.770;9.200;2023-09-08T16:53:18;27.50;1.00
296;DHT22;132;48.770;9.200;2023-09-08T16:56:04;27.40;1.00
296;DHT22;132;48.770;9.200;2023-09-08T16:58:55;27.30;1.00
296;DHT22;132;48.770;9.200;2023-09-08T17:01:41;27.30;1.00
296;DHT22;132;48.770;9.200;2023-09-08T17:04:28;27.20;1.00
296;DHT22;132;48.770;9.200;2023-09-08T17:07:16;27.10;1.00
296;DHT22;132;48.770;9.200;2023-09-08T17:10:02;27.10;1.00
296;DHT22;132;48.770;9.200;2023-09-08T17:12:49;27.00;1.00
296;DHT22;132;48.770;9.200;2023-09-08T17:15:36;26.90;1.00
296;DHT22;132;48.770;9.200;2023-09-08T17:18:23;26.80;1.00
296;DHT22;132;48.770;9.200;2023-09-08T17:21:11;26.60;1.00
296;DHT22;132;48.770;9.200;2023-09-08T17:23:57;26.40;1.00
296;DHT22;132;48.770;9.200;2023-09-08T17:26:44;26.30;1.00
296;DHT22;132;48.770;9.200;2023-09-08T17:29:30;26.10;1.00
296;DHT22;132;48.770;9.200;2023-09-08T17:32:18;26.10;1.00
296;DHT22;132;48.770;9.200;2023-09-08T17:35:06;25.80;1.00
296;DHT22;132;48.770;9.200;2023-09-08T17:37:52;25.70;1.00
296;DHT22;132;48.770;9.200;2023-09-08T17:40:40;25.50;1.00
296;DHT22;132;48.770;9.200;2023-09-08T17:43:27;25.50;1.00
296;DHT22;132;48.770;9.200;2023-09-08T17:46:13;25.20;1.00
296;DHT22;132;48.770;9.200;2023-09-08T17:49:01;25.10;1.00
296;DHT22;132;48.770;9.200;2023-09-08T17:51:47;25.00;1.00
296;DHT22;132;48.770;9.200;2023-09-08T17:54:34;24.80;1.00
296;DHT22;132;48.770;9.200;2023-09-08T17:57:21;24.70;1.00
296;DHT22;132;48.770;9.200;2023-09-08T18:00:08;24.60;1.00
296;DHT22;132;48.770;9.200;2023-09-08T18:02:54;24.50;1.00
296;DHT22;132;48.770;9.200;2023-09-08T18:05:41;24.50;1.00
296;DHT22;132;48.770;9.200;2023-09-08T18:08:28;24.40;1.00
296;DHT22;132;48.770;9.200;2023-09-08T18:11:14;24.30;1.00
296;DHT22;132;48.770;9.200;2023-09-08T18:14:03;24.40;1.00
296;DHT22;132;48.770;9.200;2023-09-08T18:16:51;24.20;1.00
296;DHT22;132;48.770;9.200;2023-09-08T18:19:38;24.10;1.00
296;DHT22;132;48.770;9.200;2023-09-08T18:22:25;24.10;1.00
296;DHT22;132;48.770;9.200;2023-09-08T18:25:12;24.10;1.00
296;DHT22;132;48.770;9.200;2023-09-08T18:27:58;24.00;1.00
296;DHT22;132;48.770;9.200;2023-09-08T18:30:45;23.90;1.00
296;DHT22;132;48.770;9.200;2023-09-08T18:33:32;24.00;1.00
296;DHT22;132;48.770;9.200;2023-09-08T18:36:18;23.90;1.00
296;DHT22;132;48.770;9.200;2023-09-08T18:39:05;23.80;1.00
296;DHT22;132;48.770;9.200;2023-09-08T18:41:51;23.80;1.00
296;DHT22;132;48.770;9.200;2023-09-08T18:44:38;23.70;1.00
296;DHT22;132;48.770;9.200;2023-09-08T18:47:28;23.70;1.00
296;DHT22;132;48.770;9.200;2023-09-08T18:50:15;23.60;1.00
296;DHT22;132;48.770;9.200;2023-09-08T18:53:01;23.70;1.00
296;DHT22;132;48.770;9.200;2023-09-08T18:55:48;26.40;1.00
296;DHT22;132;48.770;9.200;2023-09-08T18:58:34;23.60;1.00
296;DHT22;132;48.770;9.200;2023-09-08T19:01:23;22.90;1.00
296;DHT22;132;48.770;9.200;2023-09-08T19:04:10;23.50;1.00
296;DHT22;132;48.770;9.200;2023-09-08T19:06:57;23.50;1.00
296;DHT22;132;48.770;9.200;2023-09-08T19:09:44;23.50;1.00
296;DHT22;132;48.770;9.200;2023-09-08T19:12:31;23.40;1.00
296;DHT22;132;48.770;9.200;2023-09-08T19:15:18;23.40;1.00
296;DHT22;132;48.770;9.200;2023-09-08T19:18:04;23.40;1.00
296;DHT22;132;48.770;9.200;2023-09-08T19:20:51;23.30;1.00
296;DHT22;132;48.770;9.200;2023-09-08T19:23:38;23.20;1.00
296;DHT22;132;48.770;9.200;2023-09-08T19:26:25;23.20;1.00
296;DHT22;132;48.770;9.200;2023-09-08T19:29:12;23.10;1.00
296;DHT22;132;48.770;9.200;2023-09-08T19:31:58;23.10;1.00
296;DHT22;132;48.770;9.200;2023-09-08T19:34:45;23.10;1.00
296;DHT22;132;48.770;9.200;2023-09-08T19:37:31;23.10;1.00
296;DHT22;132;48.770;9.200;2023-09-08T19:40:18;23.00;1.00
296;DHT22;132;48.770;9.200;2023-09-08T19:43:04;23.00;1.00
296;DHT22;132;48.770;9.200;2023-09-08T19:45:51;23.00;1.00
296;DHT22;132;48.770;9.200;2023-09-08T19:48:38;23.00;1.00
296;DHT22;132;48.770;9.200;2023-09-08T19:51:24;23.00;1.00
296;DHT22;132;48.770;9.200;2023-09-08T19:54:11;22.90;1.00
296;DHT22;132;48.770;9.200;2023-09-08T19:56:58;22.80;1.00
296;DHT22;132;48.770;9.200;2023-09-08T19:59:44;22.80;1.00